Gene Herde — WDD4338 — position and weather

sailwx.info

Track history (hours):
 
Tides and Currents Weather Stations Pressure Air Temp Water Temp Dewpoint Dewpoint Depression Visibility Wind Speed Wind Dir Waves Ship Positions

Gene Herde

Owner: American Commercial Lines LLC, Jeffersonville, IN. More information available from US FCC via Universal Licensing System and Coast Guard Vessel Documentation Center.

Last reported at 2015-Aug-18 15:30 UTC. Time now 2015-Sep-01 20:22 UTC.
Position N 38°56' W 084°52'.
Warning: this ship's position is 14 days out of date.

Length 39 m; draft 2.9 m.

Type: Towing. MMSI: 367143450.

Date/timePositionNaut miles runAvg speedWind from/ knotsBaromVisibWave heightAir tempDewpointWater temp
2015-Aug-18 15:30N 38°56' W 084°52'8 3.9
2015-Aug-18 13:26N 39°04' W 084°53'6 6.1
2015-Aug-18 12:31N 39°07' W 084°47'4 4.3
2015-Aug-18 11:33N 39°07' W 084°42'6 5.5
2015-Aug-18 10:33N 39°05' W 084°35'5 4.9
2015-Aug-18 09:33N 39°06' W 084°29'2 1.8
2015-Aug-18 08:32N 39°07' W 084°27'4 4.1
2015-Aug-18 07:33N 39°03' W 084°26'6 5.7
2015-Aug-18 06:33N 39°01' W 084°19'5 5.4
2015-Aug-18 05:33N 38°56' W 084°16'6 6.0
2015-Aug-18 04:33N 38°50' W 084°14'2 6.2
2015-Aug-18 04:11N 38°48' W 084°13'0 5.8
2015-Aug-18 04:08N 38°48' W 084°12'2 2.8
2015-Aug-18 03:31N 38°48' W 084°10'2 1.7
2015-Aug-18 02:32N 38°47' W 084°08'1 1.5
2015-Aug-18 01:33N 38°47' W 084°07'7 5.4
2015-Aug-18 00:13N 38°47' W 083°57'  
2015-Aug-10 14:14N 38°42' W 083°49'4 5.6
2015-Aug-10 13:31N 38°46' W 083°52'8 5.7
2015-Aug-10 12:06N 38°46' W 084°03'3 6.1
2015-Aug-10 11:33N 38°47' W 084°07'3 3.0
2015-Aug-10 10:33N 38°48' W 084°11'1 0.7
2015-Aug-10 09:33N 38°48' W 084°11'3 3.0
2015-Aug-10 08:33N 38°50' W 084°14'5 4.9
2015-Aug-10 07:33N 38°55' W 084°15'5 5.3
2015-Aug-10 06:33N 38°60' W 084°18'4 3.6
2015-Aug-10 05:32N 39°02' W 084°21'4 4.6
2015-Aug-10 04:33N 39°05' W 084°26'3 3.3
2015-Aug-10 03:33N 39°06' W 084°30'4 4.2
2015-Aug-10 02:33N 39°05' W 084°35'5 4.7
2015-Aug-10 01:33N 39°06' W 084°41'0 0.2
2015-Aug-10 00:33N 39°06' W 084°41'0 0.0
2015-Aug-09 23:32N 39°06' W 084°41'4 4.2
2015-Aug-09 22:33N 39°09' W 084°46'7 5.6
2015-Aug-09 21:14N 39°04' W 084°53'  
Track history (hours):
 
Tides and Currents Weather Stations Pressure Air Temp Water Temp Dewpoint Dewpoint Depression Visibility Wind Speed Wind Dir Waves Ship Positions

Gene Herde

Owner: American Commercial Lines LLC, Jeffersonville, IN. More information available from US FCC via Universal Licensing System and Coast Guard Vessel Documentation Center.

Last reported at 2015-Aug-18 15:30 UTC. Time now 2015-Sep-01 20:22 UTC.
Position N 38°56' W 084°52'.
Warning: this ship's position is 14 days out of date.

Length 39 m; draft 2.9 m.

Type: Towing. MMSI: 367143450.

Date/timePositionNaut miles runAvg speedWind from/ knotsBaromVisibWave heightAir tempDewpointWater temp
2015-Aug-18 15:30N 38°56' W 084°52'8 3.9
2015-Aug-18 13:26N 39°04' W 084°53'6 6.1
2015-Aug-18 12:31N 39°07' W 084°47'4 4.3
2015-Aug-18 11:33N 39°07' W 084°42'6 5.5
2015-Aug-18 10:33N 39°05' W 084°35'5 4.9
2015-Aug-18 09:33N 39°06' W 084°29'2 1.8
2015-Aug-18 08:32N 39°07' W 084°27'4 4.1
2015-Aug-18 07:33N 39°03' W 084°26'6 5.7
2015-Aug-18 06:33N 39°01' W 084°19'5 5.4
2015-Aug-18 05:33N 38°56' W 084°16'6 6.0
2015-Aug-18 04:33N 38°50' W 084°14'2 6.2
2015-Aug-18 04:11N 38°48' W 084°13'0 5.8
2015-Aug-18 04:08N 38°48' W 084°12'2 2.8
2015-Aug-18 03:31N 38°48' W 084°10'2 1.7
2015-Aug-18 02:32N 38°47' W 084°08'1 1.5
2015-Aug-18 01:33N 38°47' W 084°07'7 5.4
2015-Aug-18 00:13N 38°47' W 083°57'  
2015-Aug-10 14:14N 38°42' W 083°49'4 5.6
2015-Aug-10 13:31N 38°46' W 083°52'8 5.7
2015-Aug-10 12:06N 38°46' W 084°03'3 6.1
2015-Aug-10 11:33N 38°47' W 084°07'3 3.0
2015-Aug-10 10:33N 38°48' W 084°11'1 0.7
2015-Aug-10 09:33N 38°48' W 084°11'3 3.0
2015-Aug-10 08:33N 38°50' W 084°14'5 4.9
2015-Aug-10 07:33N 38°55' W 084°15'5 5.3
2015-Aug-10 06:33N 38°60' W 084°18'4 3.6
2015-Aug-10 05:32N 39°02' W 084°21'4 4.6
2015-Aug-10 04:33N 39°05' W 084°26'3 3.3
2015-Aug-10 03:33N 39°06' W 084°30'4 4.2
2015-Aug-10 02:33N 39°05' W 084°35'5 4.7
2015-Aug-10 01:33N 39°06' W 084°41'0 0.2
2015-Aug-10 00:33N 39°06' W 084°41'0 0.0
2015-Aug-09 23:32N 39°06' W 084°41'4 4.2
2015-Aug-09 22:33N 39°09' W 084°46'7 5.6
2015-Aug-09 21:14N 39°04' W 084°53'  

Dump ship's entire track history